Thunder radar more information blitzortung!


Radar de pluja more information rain snow radar


Visita la nostra xarxa de llocs de meteo:

Template documentation
and downloads

And another site



No particular awareness of the weather is required.    There are no Weather-warnings

Pagina Historial Weather Underground text

Diari Resum February 1, 2018 Unitats:  Imperial    Mètric   Tant
« Previous Dia
SegĂźent Dia »
Diari Setmana Mensual Anual Personalitzada
  Maxima: Minima: Media:
Temperatura: TemperatureC °F 3.0 °F 5.8 °F
Punt de rosada: DewpointC °F -0.4 °F 2.1 °F
Humitat: Humidity % 71 % 77 %
Wind Speed: WindSpeedKMH mph 0.0 mph 4.7 mph
RĂ fegues de vent: WindSpeedGustKMH mph - -
Vent:- - East
Pression baro: PressurehPa in 1006.0 in -
Precipitacions: 1.3 in    
Historical Graphs
 
 
Dades de taula per February 1, 2018
Temps Temperatura Punt de rosada Pression baro Vent Wind Speed RĂ fegues de vent Humitat Rainfall Rate (Hourly)
TemperatureC °F DewpointC °F PressurehPa in Calm     Humidity % HourlyPrecipMM in
00:01 7.7 °F 3.3 °F 1017.8 in WSW 7.4 mph 7.4 mph 74 % 0.0 in
00:05 3.0 °F -0.4 °F 1011.7 in Calm   3.2 mph 78 % 0.0 in
00:15 3.1 °F -0.2 °F 1011.7 in NNW 1.6 mph 1.6 mph 79 % 0.0 in
00:25 3.3 °F -0.2 °F 1010.7 in Calm   1.6 mph 78 % 0.0 in
00:35 3.2 °F -0.3 °F 1011.7 in Calm     78 % 0.0 in
00:45 3.2 °F -0.3 °F 1011.7 in Calm   1.6 mph 78 % 0.0 in
00:55 3.3 °F 0.0 °F 1011.7 in NNW 1.6 mph 3.2 mph 79 % 0.0 in
01:05 3.3 °F 0.0 °F 1011.7 in NNE 1.6 mph 3.2 mph 79 % 0.0 in
01:15 3.1 °F -0.4 °F 1011.7 in Calm   4.8 mph 78 % 0.0 in
01:25 3.2 °F -0.3 °F 1010.7 in SW 1.6 mph 3.2 mph 78 % 0.0 in
01:35 3.1 °F -0.4 °F 1011.7 in WSW 1.6 mph 1.6 mph 78 % 0.0 in
01:45 3.2 °F -0.1 °F 1011.7 in WSW 1.6 mph 1.6 mph 79 % 0.0 in
02:05 3.2 °F -0.1 °F 1010.7 in Calm     79 % 0.0 in
02:15 3.6 °F 0.3 °F 1010.7 in NNW 1.6 mph 3.2 mph 79 % 0.0 in
02:25 3.3 °F -0.2 °F 1010.7 in West 1.6 mph 3.2 mph 78 % 0.0 in
02:35 3.4 °F -0.1 °F 1010.7 in Calm   3.2 mph 78 % 0.0 in
02:45 3.7 °F 0.4 °F 1010.7 in Calm     79 % 0.0 in
02:55 3.9 °F 0.6 °F 1010.0 in Calm   1.6 mph 79 % 0.0 in
03:05 4.2 °F 0.9 °F 1010.0 in WSW 1.6 mph 3.2 mph 79 % 0.0 in
09:06 4.1 °F 0.8 °F 1010.0 in SW 3.7 mph   79 % 0.0 in
09:11 4.2 °F 0.9 °F 1010.0 in Calm     79 % 0.0 in
09:16 4.3 °F 1.0 °F 1010.0 in SW 1.9 mph   79 % 0.0 in
09:21 4.3 °F 1.0 °F 1010.0 in SW 1.9 mph   79 % 0.0 in
09:26 4.3 °F 1.0 °F 1010.0 in Calm     79 % 0.0 in
09:32 4.3 °F 1.0 °F 1010.0 in SSW 1.9 mph   79 % 0.0 in
09:37 4.4 °F 1.1 °F 1010.0 in SW 2.6 mph 2.6 mph 79 % 0.0 in
09:42 4.4 °F 1.1 °F 1010.0 in Calm     79 % 0.0 in
09:47 4.4 °F 1.1 °F 1010.0 in SW 3.7 mph 3.7 mph 79 % 0.0 in
09:52 4.4 °F 1.1 °F 1010.0 in Calm     79 % 0.0 in
09:57 4.5 °F 1.2 °F 1010.0 in Calm     79 % 0.0 in
10:02 4.5 °F 1.2 °F 1010.0 in SW 1.9 mph 2.3 mph 79 % 0.0 in
10:07 4.6 °F 1.3 °F 1010.0 in Calm     79 % 0.0 in
10:12 4.7 °F 1.4 °F 1010.0 in Calm     79 % 0.0 in
10:17 4.8 °F 1.4 °F 1010.0 in Calm     79 % 0.0 in
10:22 5.0 °F 1.7 °F 1010.0 in Calm     79 % 0.0 in
10:27 5.1 °F 1.8 °F 1010.0 in NNE 3.7 mph 3.7 mph 79 % 0.0 in
10:32 5.2 °F 1.8 °F 1010.0 in WNW 2.6 mph 2.6 mph 79 % 0.0 in
10:37 5.4 °F 1.9 °F 1010.0 in NNW 3.7 mph 3.7 mph 78 % 0.0 in
10:42 5.6 °F 2.1 °F 1010.0 in SSE 4.2 mph 4.2 mph 78 % 0.0 in
10:47 5.8 °F 2.3 °F 1010.0 in NE 5.6 mph 5.6 mph 78 % 0.0 in
10:52 5.9 °F 2.2 °F 1010.0 in North 5.0 mph 5.0 mph 77 % 0.0 in
10:57 6.0 °F 2.3 °F 1010.0 in NW 3.7 mph 3.7 mph 77 % 0.0 in
11:02 6.0 °F 2.1 °F 1010.0 in NNE 4.2 mph 4.2 mph 76 % 0.0 in
11:07 6.0 °F 2.1 °F 1010.0 in WNW 3.7 mph 3.7 mph 76 % 0.0 in
11:12 5.9 °F 1.8 °F 1010.0 in NNE 9.3 mph 9.3 mph 75 % 0.0 in
11:17 5.9 °F 1.8 °F 1010.0 in NNE 4.7 mph 5.8 mph 75 % 0.0 in
11:22 5.9 °F 1.6 °F 1010.0 in NNE 9.3 mph 9.3 mph 74 % 0.0 in
11:27 6.0 °F 1.7 °F 1010.0 in NNE 7.4 mph 7.4 mph 74 % 0.0 in
11:32 6.0 °F 1.7 °F 1010.0 in NNE 9.3 mph 9.3 mph 74 % 0.0 in
11:37 6.1 °F 1.8 °F 1010.0 in NNE 11.1 mph 11.1 mph 74 % 0.0 in
11:42 6.0 °F 1.5 °F 1010.0 in NNE 9.7 mph 9.7 mph 73 % 0.0 in
11:47 6.0 °F 1.5 °F 1010.0 in NNE 11.9 mph 11.9 mph 73 % 0.0 in
11:52 6.1 °F 1.6 °F 1010.0 in NE 7.4 mph 7.4 mph 73 % 0.0 in
11:57 6.3 °F 1.8 °F 1010.0 in North 9.3 mph 9.3 mph 73 % 0.0 in
12:02 6.4 °F 1.9 °F 1010.0 in NNE 11.1 mph 11.1 mph 73 % 0.0 in
12:07 6.5 °F 2.0 °F 1010.0 in North 9.3 mph 9.3 mph 73 % 0.0 in
12:12 6.6 °F 1.9 °F 1010.0 in NNE 9.3 mph 9.3 mph 72 % 0.0 in
12:17 6.7 °F 2.0 °F 1009.0 in NNE 9.3 mph 9.3 mph 72 % 0.0 in
12:22 6.8 °F 2.1 °F 1009.0 in NNE 10.3 mph 10.3 mph 72 % 0.0 in
12:27 6.9 °F 2.2 °F 1009.0 in NE 13.0 mph 13.0 mph 72 % 0.0 in
12:32 7.0 °F 2.1 °F 1008.0 in ENE 9.3 mph 9.3 mph 71 % 0.0 in
12:37 7.1 °F 2.2 °F 1008.0 in NNE 5.3 mph 5.3 mph 71 % 0.0 in
12:42 7.1 °F 2.2 °F 1008.0 in NNE 9.3 mph 9.3 mph 71 % 0.0 in
12:47 7.1 °F 2.2 °F 1008.0 in ENE 11.1 mph 11.1 mph 71 % 0.0 in
12:52 7.1 °F 2.4 °F 1008.0 in ENE 4.2 mph 4.2 mph 72 % 0.0 in
12:57 7.1 °F 2.4 °F 1008.0 in NE 5.0 mph 5.0 mph 72 % 0.0 in
13:02 7.1 °F 2.4 °F 1008.0 in NNE 5.0 mph 5.0 mph 72 % 0.0 in
13:07 7.0 °F 2.3 °F 1008.0 in North 7.4 mph 7.4 mph 72 % 0.0 in
13:12 7.0 °F 2.5 °F 1008.0 in ENE 7.4 mph 7.4 mph 73 % 0.0 in
13:17 6.9 °F 2.6 °F 1008.0 in NNE 3.7 mph 3.7 mph 74 % 0.0 in
13:22 6.9 °F 2.6 °F 1008.0 in NNE 4.2 mph 4.2 mph 74 % 0.0 in
13:27 6.8 °F 2.7 °F 1008.0 in NNE 5.0 mph 5.0 mph 75 % 0.0 in
13:32 6.7 °F 2.6 °F 1008.0 in NNE 3.7 mph 3.7 mph 75 % 0.0 in
13:37 6.7 °F 2.8 °F 1008.0 in NNE 3.7 mph 3.7 mph 76 % 0.0 in
13:42 6.7 °F 2.8 °F 1008.0 in NW 4.2 mph   76 % 0.0 in
13:47 6.7 °F 2.8 °F 1008.0 in NNE 3.9 mph 3.9 mph 76 % 0.0 in
13:52 6.6 °F 2.7 °F 1008.0 in NE 4.2 mph 4.2 mph 76 % 0.0 in
13:57 6.5 °F 2.6 °F 1008.0 in NNE 7.4 mph 7.4 mph 76 % 0.0 in
14:02 6.5 °F 2.8 °F 1008.0 in NNE 5.6 mph 5.6 mph 77 % 0.0 in
14:07 6.5 °F 2.8 °F 1008.0 in East 5.6 mph 5.6 mph 77 % 0.0 in
14:12 6.5 °F 2.8 °F 1008.0 in East 5.6 mph 5.6 mph 77 % 0.0 in
14:17 6.5 °F 2.8 °F 1008.0 in ENE 7.4 mph 7.4 mph 77 % 0.0 in
14:22 6.5 °F 2.8 °F 1008.0 in NNE 6.1 mph 6.1 mph 77 % 0.0 in
14:27 6.5 °F 2.8 °F 1008.0 in NNE 3.7 mph 3.7 mph 77 % 0.0 in
14:32 6.5 °F 2.8 °F 1007.0 in North 3.7 mph 4.7 mph 77 % 0.0 in
14:37 6.5 °F 2.8 °F 1007.0 in NNE 7.4 mph 7.4 mph 77 % 0.0 in
14:42 6.5 °F 2.9 °F 1007.0 in NNE 3.9 mph 3.9 mph 78 % 0.0 in
14:47 6.6 °F 3.1 °F 1007.0 in ENE 5.6 mph 5.6 mph 78 % 0.0 in
14:52 6.6 °F 3.1 °F 1007.0 in NNW 7.4 mph 7.4 mph 78 % 0.0 in
14:57 6.6 °F 3.1 °F 1007.0 in NNE 7.4 mph 7.4 mph 78 % 0.0 in
15:02 6.6 °F 3.1 °F 1007.0 in WNW 3.7 mph 4.2 mph 78 % 0.0 in
15:07 6.6 °F 3.1 °F 1007.0 in ENE 3.9 mph 3.9 mph 78 % 0.0 in
15:12 6.7 °F 3.1 °F 1007.0 in NE 3.9 mph 3.9 mph 78 % 0.0 in
15:17 6.7 °F 3.1 °F 1007.0 in North 5.6 mph 5.6 mph 78 % 0.0 in
15:22 6.7 °F 3.1 °F 1007.0 in ESE 3.7 mph 3.7 mph 78 % 0.0 in
15:27 6.7 °F 3.1 °F 1007.0 in NNE 3.7 mph 3.7 mph 78 % 0.0 in
15:32 6.8 °F 3.2 °F 1007.0 in NNE 3.7 mph 3.7 mph 78 % 0.0 in
15:37 6.8 °F 3.1 °F 1007.0 in NNE 3.7 mph 3.7 mph 77 % 0.0 in
15:42 6.9 °F 3.2 °F 1007.0 in NNW 4.7 mph 4.7 mph 77 % 0.0 in
15:47 6.8 °F 3.1 °F 1007.0 in North 3.7 mph 3.7 mph 77 % 0.0 in
15:52 6.9 °F 3.2 °F 1007.0 in NE 5.6 mph 5.6 mph 77 % 0.0 in
15:57 6.9 °F 3.2 °F 1007.0 in North 1.9 mph 1.9 mph 77 % 0.0 in
16:02 6.8 °F 3.1 °F 1007.0 in NNE 3.9 mph 3.9 mph 77 % 0.0 in
16:07 6.8 °F 3.1 °F 1007.0 in NE 3.7 mph 3.7 mph 77 % 0.0 in
16:12 6.7 °F 2.9 °F 1007.0 in NE 7.4 mph 7.4 mph 77 % 0.0 in
16:17 6.7 °F 2.9 °F 1006.0 in North 3.9 mph 3.9 mph 77 % 0.0 in
16:22 6.7 °F 2.9 °F 1006.0 in NNE 1.9 mph   77 % 0.0 in
16:27 6.7 °F 2.9 °F 1006.0 in ENE 1.9 mph 1.9 mph 77 % 0.0 in
16:32 6.7 °F 2.9 °F 1006.0 in WNW 3.7 mph   77 % 0.0 in
16:37 6.7 °F 2.9 °F 1006.0 in WNW 1.9 mph 2.6 mph 77 % 0.0 in
16:42 6.7 °F 2.9 °F 1006.0 in ENE 3.7 mph 3.7 mph 77 % 0.0 in
16:47 6.6 °F 2.8 °F 1007.0 in NNE 3.7 mph 3.7 mph 77 % 0.0 in
16:52 6.6 °F 2.8 °F 1007.0 in NW 1.9 mph   77 % 0.0 in
16:57 6.6 °F 2.8 °F 1007.0 in NNE 3.7 mph 3.7 mph 77 % 0.0 in
17:02 6.6 °F 2.8 °F 1007.0 in NNE 3.7 mph   77 % 0.0 in
17:07 6.6 °F 2.8 °F 1007.0 in NNE 1.9 mph   77 % 0.0 in
17:12 6.7 °F 2.9 °F 1007.0 in NW 2.3 mph   77 % 0.0 in
17:17 6.8 °F 3.1 °F 1007.0 in NW 2.3 mph 2.3 mph 77 % 0.0 in
17:22 6.7 °F 3.1 °F 1007.0 in Calm     78 % 0.0 in
17:27 6.8 °F 3.2 °F 1007.0 in Calm     78 % 0.0 in
17:32 6.7 °F 3.1 °F 1006.0 in WNW 1.9 mph   78 % 0.0 in
17:37 6.7 °F 3.1 °F 1006.0 in Calm     78 % 0.0 in
17:42 6.7 °F 3.1 °F 1006.0 in Calm     78 % 0.0 in
17:47 6.7 °F 3.1 °F 1006.0 in WNW 1.9 mph   78 % 0.0 in
17:52 6.7 °F 3.1 °F 1006.0 in Calm     78 % 0.0 in
17:57 6.7 °F 3.1 °F 1006.0 in WNW 1.9 mph   78 % 0.0 in
18:02 6.7 °F 3.1 °F 1006.0 in Calm     78 % 0.0 in
18:07 6.8 °F 3.2 °F 1006.0 in Calm     78 % 0.0 in
18:12 6.7 °F 3.1 °F 1006.0 in Calm     78 % 0.0 in
18:17 6.7 °F 3.1 °F 1007.0 in East 3.9 mph 3.9 mph 78 % 0.0 in
18:19 6.7 °F 3.1 °F 1007.0 in ESE 3.7 mph 3.7 mph 78 % 0.0 in
18:24 6.7 °F 3.1 °F 1007.0 in East 3.7 mph 3.7 mph 78 % 0.0 in
18:29 6.7 °F 3.1 °F 1006.0 in ESE 1.9 mph 1.9 mph 78 % 0.0 in
18:34 6.7 °F 3.1 °F 1006.0 in Calm     78 % 0.0 in
18:39 6.8 °F 3.2 °F 1006.0 in ENE 3.7 mph 3.7 mph 78 % 0.0 in
18:44 6.6 °F 3.1 °F 1007.0 in NE 4.2 mph 4.2 mph 78 % 0.0 in
18:49 6.6 °F 3.1 °F 1007.0 in ENE 3.9 mph 4.2 mph 78 % 0.0 in
18:54 6.6 °F 3.1 °F 1007.0 in ESE 7.4 mph 7.4 mph 78 % 0.0 in
18:59 6.4 °F 2.8 °F 1006.0 in ESE 9.3 mph 9.5 mph 78 % 0.0 in
19:04 6.3 °F 2.7 °F 1006.0 in ENE 9.3 mph 9.3 mph 78 % 0.0 in
19:09 6.2 °F 2.7 °F 1006.0 in ENE 7.4 mph 7.4 mph 78 % 0.0 in
19:14 6.2 °F 2.7 °F 1006.0 in ESE 5.6 mph 5.6 mph 78 % 0.0 in
19:19 6.1 °F 2.7 °F 1006.0 in ENE 5.6 mph 5.6 mph 79 % 0.0 in
19:24 6.1 °F 2.7 °F 1006.0 in ENE 3.7 mph 3.7 mph 79 % 0.0 in
19:29 6.1 °F 2.7 °F 1007.0 in ESE 5.6 mph 5.6 mph 79 % 0.0 in
19:34 6.1 °F 2.7 °F 1007.0 in ESE 7.6 mph 7.6 mph 79 % 0.0 in
19:39 6.0 °F 2.6 °F 1007.0 in ESE 11.1 mph 11.1 mph 79 % 0.0 in
19:44 6.0 °F 2.6 °F 1007.0 in ESE 7.4 mph 7.4 mph 79 % 0.0 in
19:49 6.0 °F 2.6 °F 1007.0 in East 9.3 mph 9.3 mph 79 % 0.0 in
19:54 5.9 °F 2.3 °F 1007.0 in NNE 16.7 mph 16.7 mph 78 % 0.0 in
19:59 5.8 °F 2.4 °F 1006.0 in ESE 9.3 mph 9.3 mph 79 % 0.0 in
20:04 5.8 °F 2.4 °F 1006.0 in ESE 7.4 mph 7.4 mph 79 % 0.0 in
20:09 5.7 °F 2.3 °F 1006.0 in ENE 7.4 mph 7.4 mph 79 % 0.0 in
20:14 5.7 °F 2.3 °F 1007.0 in ENE 8.7 mph 8.7 mph 79 % 0.0 in
20:19 5.7 °F 2.3 °F 1007.0 in NE 9.0 mph 9.0 mph 79 % 0.0 in
20:24 5.7 °F 2.3 °F 1007.0 in ENE 7.4 mph 7.4 mph 79 % 0.0 in
20:29 5.7 °F 2.3 °F 1007.0 in NE 5.6 mph 5.6 mph 79 % 0.0 in
20:34 5.6 °F 2.2 °F 1007.0 in NNE 11.1 mph 11.1 mph 79 % 0.0 in
20:39 5.6 °F 2.2 °F 1007.0 in NNE 9.3 mph 9.3 mph 79 % 0.0 in
20:44 5.5 °F 2.2 °F 1007.0 in NNE 9.3 mph 9.3 mph 79 % 0.0 in
20:49 5.5 °F 2.2 °F 1007.0 in NNE 7.4 mph 7.4 mph 79 % 0.0 in
20:54 5.5 °F 2.2 °F 1007.0 in NNE 7.4 mph 7.4 mph 79 % 0.0 in
20:59 5.5 °F 2.2 °F 1007.0 in NNE 6.9 mph 6.9 mph 79 % 0.0 in
21:04 5.5 °F 2.2 °F 1007.0 in NNW 1.9 mph   79 % 0.0 in
21:09 5.6 °F 2.2 °F 1007.0 in ENE 3.7 mph 3.7 mph 79 % 0.0 in
21:14 5.6 °F 2.2 °F 1007.0 in ENE 11.1 mph 11.1 mph 79 % 0.0 in
21:19 5.6 °F 2.2 °F 1007.0 in ENE 9.3 mph 9.3 mph 79 % 0.0 in
21:24 5.5 °F 1.9 °F 1007.0 in ENE 7.4 mph 7.4 mph 78 % 0.0 in
21:29 5.6 °F 2.1 °F 1007.0 in NNE 5.6 mph 5.6 mph 78 % 0.0 in
21:34 5.6 °F 2.1 °F 1007.0 in East 5.6 mph 5.6 mph 78 % 0.0 in
21:39 5.6 °F 2.1 °F 1007.0 in East 5.0 mph 5.0 mph 78 % 0.0 in
21:44 5.5 °F 1.9 °F 1007.0 in ENE 7.4 mph 7.4 mph 78 % 0.0 in
21:49 5.5 °F 1.9 °F 1007.0 in NNE 7.4 mph 7.4 mph 78 % 0.0 in
21:54 5.5 °F 1.9 °F 1007.0 in ENE 11.1 mph 11.1 mph 78 % 0.0 in
21:59 5.5 °F 1.9 °F 1007.0 in ENE 9.3 mph 9.3 mph 78 % 0.0 in
22:04 5.5 °F 1.9 °F 1007.0 in ENE 3.7 mph 3.7 mph 78 % 0.0 in
22:09 5.5 °F 1.9 °F 1007.0 in NNE 3.7 mph 3.7 mph 78 % 0.0 in
22:14 5.5 °F 1.9 °F 1007.0 in NNE 7.4 mph 7.4 mph 78 % 0.0 in
22:19 5.5 °F 1.9 °F 1007.0 in NNE 5.6 mph 5.6 mph 78 % 0.0 in
22:24 5.5 °F 1.9 °F 1007.0 in NNE 5.6 mph 5.6 mph 78 % 0.0 in
22:29 5.4 °F 1.9 °F 1007.0 in East 7.4 mph 7.4 mph 78 % 0.0 in
22:34 5.4 °F 1.9 °F 1007.0 in NNE 5.6 mph 5.6 mph 78 % 0.0 in
22:39 5.5 °F 1.9 °F 1007.0 in NNE 5.6 mph 5.6 mph 78 % 0.0 in
22:44 5.5 °F 1.9 °F 1007.0 in NNE 5.6 mph 5.6 mph 78 % 0.0 in
22:49 5.5 °F 1.9 °F 1007.0 in NNE 7.4 mph 7.4 mph 78 % 0.0 in
22:54 5.5 °F 1.9 °F 1007.0 in ENE 5.6 mph 5.6 mph 78 % 0.0 in
22:59 5.5 °F 1.9 °F 1008.0 in NNE 3.7 mph 3.7 mph 78 % 0.0 in
23:04 5.5 °F 1.9 °F 1008.0 in NNE 2.3 mph 2.3 mph 78 % 0.0 in
23:09 5.5 °F 1.9 °F 1008.0 in NNE 3.7 mph 3.7 mph 78 % 0.0 in
23:14 5.5 °F 1.9 °F 1007.0 in NNE 3.7 mph 3.7 mph 78 % 0.0 in
23:19 5.5 °F 1.9 °F 1007.0 in NNE 3.7 mph 3.7 mph 78 % 0.0 in
23:24 5.5 °F 1.8 °F 1007.0 in NNE 2.3 mph 2.6 mph 77 % 0.0 in
23:29 5.5 °F 1.9 °F 1008.0 in NNE 5.6 mph 5.6 mph 78 % 0.0 in
23:34 5.5 °F 1.9 °F 1008.0 in ENE 1.9 mph 1.9 mph 78 % 0.0 in
23:39 5.5 °F 1.9 °F 1008.0 in ENE 3.7 mph 3.7 mph 78 % 0.0 in
23:44 5.3 °F 1.8 °F 1008.0 in ENE 4.2 mph 4.2 mph 78 % 0.0 in
23:49 5.2 °F 1.7 °F 1008.0 in ENE 1.9 mph 1.9 mph 78 % 0.0 in
23:54 5.2 °F 1.7 °F 1008.0 in Calm     78 % 0.0 in
23:59 5.1 °F 1.6 °F 1008.0 in ENE 3.7 mph 3.7 mph 78 % 1.3 in
Meteo Sesrovires
Elogis d' Weather Underground - 2 mb

Guio original per  Jim McMurry - jmcmurry@mwt.net Adaptat per a la plantilla per  Wim van der Kuil - Leuven-Template.eu

Trobareu la nostra informacio del temps tambe a:

Weather Underground

AWEKAS